sensor_id;sensor_type;location;lat;lon;timestamp;P1;durP1;ratioP1;P2;durP2;ratioP2
31128;SDS011;17777;48.770;8.944;2024-02-21T00:00:57;5.90;;;2.38;;
31128;SDS011;17777;48.770;8.944;2024-02-21T00:03:23;3.67;;;2.05;;
31128;SDS011;17777;48.770;8.944;2024-02-21T00:05:48;6.00;;;2.13;;
31128;SDS011;17777;48.770;8.944;2024-02-21T00:08:14;9.30;;;2.55;;
31128;SDS011;17777;48.770;8.944;2024-02-21T00:10:40;5.38;;;1.88;;
31128;SDS011;17777;48.770;8.944;2024-02-21T00:13:06;5.57;;;1.90;;
31128;SDS011;17777;48.770;8.944;2024-02-21T00:15:32;4.43;;;1.48;;
31128;SDS011;17777;48.770;8.944;2024-02-21T00:17:58;4.82;;;2.17;;
31128;SDS011;17777;48.770;8.944;2024-02-21T00:20:23;6.95;;;2.22;;
31128;SDS011;17777;48.770;8.944;2024-02-21T00:22:51;4.00;;;2.03;;
31128;SDS011;17777;48.770;8.944;2024-02-21T00:25:16;4.05;;;1.88;;
31128;SDS011;17777;48.770;8.944;2024-02-21T00:27:42;4.75;;;1.70;;
31128;SDS011;17777;48.770;8.944;2024-02-21T00:30:08;4.28;;;1.52;;
31128;SDS011;17777;48.770;8.944;2024-02-21T00:32:35;6.28;;;1.92;;
31128;SDS011;17777;48.770;8.944;2024-02-21T00:35:01;4.40;;;1.88;;
31128;SDS011;17777;48.770;8.944;2024-02-21T00:37:27;4.15;;;1.77;;
31128;SDS011;17777;48.770;8.944;2024-02-21T00:39:53;4.25;;;1.70;;
31128;SDS011;17777;48.770;8.944;2024-02-21T00:42:20;3.65;;;1.90;;
31128;SDS011;17777;48.770;8.944;2024-02-21T00:44:46;2.65;;;1.67;;
31128;SDS011;17777;48.770;8.944;2024-02-21T00:47:12;4.05;;;1.55;;
31128;SDS011;17777;48.770;8.944;2024-02-21T00:49:38;3.35;;;1.80;;
31128;SDS011;17777;48.770;8.944;2024-02-21T00:52:03;5.47;;;2.00;;
31128;SDS011;17777;48.770;8.944;2024-02-21T00:54:29;3.45;;;1.42;;
31128;SDS011;17777;48.770;8.944;2024-02-21T00:56:55;6.13;;;1.88;;
31128;SDS011;17777;48.770;8.944;2024-02-21T00:59:21;4.38;;;1.65;;
31128;SDS011;17777;48.770;8.944;2024-02-21T01:01:47;3.30;;;1.80;;
31128;SDS011;17777;48.770;8.944;2024-02-21T01:04:12;3.60;;;1.77;;
31128;SDS011;17777;48.770;8.944;2024-02-21T01:06:38;3.65;;;1.60;;
31128;SDS011;17777;48.770;8.944;2024-02-21T01:09:07;3.28;;;1.80;;
31128;SDS011;17777;48.770;8.944;2024-02-21T01:11:33;3.65;;;1.40;;
31128;SDS011;17777;48.770;8.944;2024-02-21T01:13:59;4.00;;;1.48;;
31128;SDS011;17777;48.770;8.944;2024-02-21T01:16:25;6.28;;;1.90;;
31128;SDS011;17777;48.770;8.944;2024-02-21T01:18:51;4.50;;;1.65;;
31128;SDS011;17777;48.770;8.944;2024-02-21T01:21:17;5.45;;;1.30;;
31128;SDS011;17777;48.770;8.944;2024-02-21T01:23:43;4.75;;;1.60;;
31128;SDS011;17777;48.770;8.944;2024-02-21T01:26:09;6.05;;;2.08;;
31128;SDS011;17777;48.770;8.944;2024-02-21T01:28:38;4.65;;;1.80;;
31128;SDS011;17777;48.770;8.944;2024-02-21T01:31:04;5.53;;;1.70;;
31128;SDS011;17777;48.770;8.944;2024-02-21T01:33:30;3.97;;;1.65;;
31128;SDS011;17777;48.770;8.944;2024-02-21T01:36:00;4.43;;;1.48;;
31128;SDS011;17777;48.770;8.944;2024-02-21T01:38:31;4.95;;;1.70;;
31128;SDS011;17777;48.770;8.944;2024-02-21T01:40:58;3.58;;;1.38;;
31128;SDS011;17777;48.770;8.944;2024-02-21T01:43:24;3.80;;;1.65;;
31128;SDS011;17777;48.770;8.944;2024-02-21T01:45:50;3.95;;;1.42;;
31128;SDS011;17777;48.770;8.944;2024-02-21T01:48:24;5.82;;;1.45;;
31128;SDS011;17777;48.770;8.944;2024-02-21T01:50:50;3.58;;;1.52;;
31128;SDS011;17777;48.770;8.944;2024-02-21T01:53:36;6.38;;;1.90;;
31128;SDS011;17777;48.770;8.944;2024-02-21T01:56:06;4.35;;;1.60;;
31128;SDS011;17777;48.770;8.944;2024-02-21T01:58:33;5.97;;;1.73;;
31128;SDS011;17777;48.770;8.944;2024-02-21T02:01:02;4.72;;;1.70;;
31128;SDS011;17777;48.770;8.944;2024-02-21T02:03:28;4.82;;;1.52;;
31128;SDS011;17777;48.770;8.944;2024-02-21T02:05:55;5.75;;;1.50;;
31128;SDS011;17777;48.770;8.944;2024-02-21T02:08:21;4.13;;;1.63;;
31128;SDS011;17777;48.770;8.944;2024-02-21T02:10:47;4.40;;;1.60;;
31128;SDS011;17777;48.770;8.944;2024-02-21T02:13:13;2.78;;;1.38;;
31128;SDS011;17777;48.770;8.944;2024-02-21T02:15:49;3.88;;;1.60;;
31128;SDS011;17777;48.770;8.944;2024-02-21T02:18:16;5.35;;;1.67;;
31128;SDS011;17777;48.770;8.944;2024-02-21T02:20:44;5.05;;;1.45;;
31128;SDS011;17777;48.770;8.944;2024-02-21T02:25:52;3.40;;;1.83;;
31128;SDS011;17777;48.770;8.944;2024-02-21T02:28:18;5.25;;;1.52;;
31128;SDS011;17777;48.770;8.944;2024-02-21T02:30:45;7.10;;;1.63;;
31128;SDS011;17777;48.770;8.944;2024-02-21T02:33:11;6.35;;;1.58;;
31128;SDS011;17777;48.770;8.944;2024-02-21T02:35:37;2.45;;;1.48;;
31128;SDS011;17777;48.770;8.944;2024-02-21T02:38:03;3.92;;;1.30;;
31128;SDS011;17777;48.770;8.944;2024-02-21T02:40:30;3.03;;;1.33;;
31128;SDS011;17777;48.770;8.944;2024-02-21T02:42:59;4.38;;;1.50;;
31128;SDS011;17777;48.770;8.944;2024-02-21T02:45:25;2.25;;;1.33;;
31128;SDS011;17777;48.770;8.944;2024-02-21T02:47:54;3.20;;;1.27;;
31128;SDS011;17777;48.770;8.944;2024-02-21T02:50:25;5.45;;;1.75;;
31128;SDS011;17777;48.770;8.944;2024-02-21T02:52:52;2.55;;;1.35;;
31128;SDS011;17777;48.770;8.944;2024-02-21T02:55:19;3.97;;;1.60;;
31128;SDS011;17777;48.770;8.944;2024-02-21T02:57:45;4.95;;;1.85;;
31128;SDS011;17777;48.770;8.944;2024-02-21T03:00:12;4.97;;;1.42;;
31128;SDS011;17777;48.770;8.944;2024-02-21T03:02:40;4.53;;;1.70;;
31128;SDS011;17777;48.770;8.944;2024-02-21T03:05:12;3.50;;;1.50;;
31128;SDS011;17777;48.770;8.944;2024-02-21T03:07:40;6.65;;;1.60;;
31128;SDS011;17777;48.770;8.944;2024-02-21T03:10:06;2.85;;;1.40;;
31128;SDS011;17777;48.770;8.944;2024-02-21T03:12:32;3.95;;;1.55;;
31128;SDS011;17777;48.770;8.944;2024-02-21T03:14:58;3.60;;;1.40;;
31128;SDS011;17777;48.770;8.944;2024-02-21T03:17:24;3.75;;;1.25;;
31128;SDS011;17777;48.770;8.944;2024-02-21T03:19:53;6.40;;;1.63;;
31128;SDS011;17777;48.770;8.944;2024-02-21T03:22:20;3.30;;;1.17;;
31128;SDS011;17777;48.770;8.944;2024-02-21T03:24:47;4.07;;;1.50;;
31128;SDS011;17777;48.770;8.944;2024-02-21T03:27:13;3.63;;;1.30;;
31128;SDS011;17777;48.770;8.944;2024-02-21T03:29:39;4.22;;;1.15;;
31128;SDS011;17777;48.770;8.944;2024-02-21T03:32:04;4.57;;;1.40;;
31128;SDS011;17777;48.770;8.944;2024-02-21T03:34:30;3.80;;;1.40;;
31128;SDS011;17777;48.770;8.944;2024-02-21T03:36:56;3.33;;;1.30;;
31128;SDS011;17777;48.770;8.944;2024-02-21T03:39:22;3.92;;;1.63;;
31128;SDS011;17777;48.770;8.944;2024-02-21T03:41:48;4.05;;;1.50;;
31128;SDS011;17777;48.770;8.944;2024-02-21T03:44:14;4.82;;;1.27;;
31128;SDS011;17777;48.770;8.944;2024-02-21T03:46:40;4.40;;;1.60;;
31128;SDS011;17777;48.770;8.944;2024-02-21T03:49:06;3.33;;;1.40;;
31128;SDS011;17777;48.770;8.944;2024-02-21T03:51:32;4.75;;;1.92;;
31128;SDS011;17777;48.770;8.944;2024-02-21T03:53:58;3.97;;;1.60;;
31128;SDS011;17777;48.770;8.944;2024-02-21T03:56:23;4.38;;;1.67;;
31128;SDS011;17777;48.770;8.944;2024-02-21T03:58:49;1.80;;;1.23;;
31128;SDS011;17777;48.770;8.944;2024-02-21T04:01:15;4.82;;;1.30;;
31128;SDS011;17777;48.770;8.944;2024-02-21T04:03:43;5.70;;;1.55;;
31128;SDS011;17777;48.770;8.944;2024-02-21T04:06:09;3.40;;;1.40;;
31128;SDS011;17777;48.770;8.944;2024-02-21T04:08:35;4.93;;;1.50;;
31128;SDS011;17777;48.770;8.944;2024-02-21T04:11:01;3.67;;;1.38;;
31128;SDS011;17777;48.770;8.944;2024-02-21T04:13:26;3.40;;;1.30;;
31128;SDS011;17777;48.770;8.944;2024-02-21T04:15:52;3.28;;;1.70;;
31128;SDS011;17777;48.770;8.944;2024-02-21T04:18:18;3.45;;;1.58;;
31128;SDS011;17777;48.770;8.944;2024-02-21T04:20:45;4.25;;;2.03;;
31128;SDS011;17777;48.770;8.944;2024-02-21T04:23:10;2.75;;;1.15;;
31128;SDS011;17777;48.770;8.944;2024-02-21T04:25:36;3.22;;;1.33;;
31128;SDS011;17777;48.770;8.944;2024-02-21T04:28:02;3.90;;;1.23;;
31128;SDS011;17777;48.770;8.944;2024-02-21T04:30:28;3.85;;;1.88;;
31128;SDS011;17777;48.770;8.944;2024-02-21T04:32:54;4.15;;;1.55;;
31128;SDS011;17777;48.770;8.944;2024-02-21T04:35:20;2.55;;;1.40;;
31128;SDS011;17777;48.770;8.944;2024-02-21T04:37:46;3.47;;;1.45;;
31128;SDS011;17777;48.770;8.944;2024-02-21T04:40:12;3.78;;;1.30;;
31128;SDS011;17777;48.770;8.944;2024-02-21T04:42:39;3.92;;;1.42;;
31128;SDS011;17777;48.770;8.944;2024-02-21T04:45:05;3.75;;;1.70;;
31128;SDS011;17777;48.770;8.944;2024-02-21T04:47:31;3.40;;;1.50;;
31128;SDS011;17777;48.770;8.944;2024-02-21T04:49:57;1.58;;;1.10;;
31128;SDS011;17777;48.770;8.944;2024-02-21T04:52:23;2.80;;;1.75;;
31128;SDS011;17777;48.770;8.944;2024-02-21T04:54:49;3.53;;;1.40;;
31128;SDS011;17777;48.770;8.944;2024-02-21T04:57:15;6.03;;;1.50;;
31128;SDS011;17777;48.770;8.944;2024-02-21T04:59:44;3.38;;;1.52;;
31128;SDS011;17777;48.770;8.944;2024-02-21T05:02:12;5.15;;;1.55;;
31128;SDS011;17777;48.770;8.944;2024-02-21T05:04:38;3.25;;;1.67;;
31128;SDS011;17777;48.770;8.944;2024-02-21T05:07:05;3.63;;;1.30;;
31128;SDS011;17777;48.770;8.944;2024-02-21T05:09:31;5.97;;;1.65;;
31128;SDS011;17777;48.770;8.944;2024-02-21T05:11:56;5.57;;;1.67;;
31128;SDS011;17777;48.770;8.944;2024-02-21T05:14:24;4.20;;;1.83;;
31128;SDS011;17777;48.770;8.944;2024-02-21T05:16:52;4.10;;;1.83;;
31128;SDS011;17777;48.770;8.944;2024-02-21T05:19:18;5.50;;;1.50;;
31128;SDS011;17777;48.770;8.944;2024-02-21T05:21:44;3.28;;;1.40;;
31128;SDS011;17777;48.770;8.944;2024-02-21T05:24:10;2.40;;;1.45;;
31128;SDS011;17777;48.770;8.944;2024-02-21T05:26:36;2.63;;;1.35;;
31128;SDS011;17777;48.770;8.944;2024-02-21T05:29:03;4.28;;;2.20;;
31128;SDS011;17777;48.770;8.944;2024-02-21T05:34:19;5.35;;;1.77;;
31128;SDS011;17777;48.770;8.944;2024-02-21T05:36:46;2.60;;;1.40;;
31128;SDS011;17777;48.770;8.944;2024-02-21T05:39:13;4.85;;;1.40;;
31128;SDS011;17777;48.770;8.944;2024-02-21T05:41:39;3.90;;;1.60;;
31128;SDS011;17777;48.770;8.944;2024-02-21T05:44:05;4.18;;;1.40;;
31128;SDS011;17777;48.770;8.944;2024-02-21T05:46:31;3.55;;;1.55;;
31128;SDS011;17777;48.770;8.944;2024-02-21T05:48:57;3.70;;;1.63;;
31128;SDS011;17777;48.770;8.944;2024-02-21T05:51:23;7.53;;;1.60;;
31128;SDS011;17777;48.770;8.944;2024-02-21T05:53:48;2.65;;;1.30;;
31128;SDS011;17777;48.770;8.944;2024-02-21T05:56:14;3.25;;;1.40;;
31128;SDS011;17777;48.770;8.944;2024-02-21T05:58:42;3.10;;;1.50;;
31128;SDS011;17777;48.770;8.944;2024-02-21T06:01:08;2.03;;;1.30;;
31128;SDS011;17777;48.770;8.944;2024-02-21T06:03:33;2.75;;;1.33;;
31128;SDS011;17777;48.770;8.944;2024-02-21T06:06:00;5.18;;;1.38;;
31128;SDS011;17777;48.770;8.944;2024-02-21T06:08:26;3.35;;;1.40;;
31128;SDS011;17777;48.770;8.944;2024-02-21T06:10:51;3.70;;;1.60;;
31128;SDS011;17777;48.770;8.944;2024-02-21T06:13:19;3.05;;;1.40;;
31128;SDS011;17777;48.770;8.944;2024-02-21T06:15:47;3.17;;;1.40;;
31128;SDS011;17777;48.770;8.944;2024-02-21T06:18:13;3.63;;;1.40;;
31128;SDS011;17777;48.770;8.944;2024-02-21T06:20:38;4.43;;;1.83;;
31128;SDS011;17777;48.770;8.944;2024-02-21T06:23:05;4.30;;;1.48;;
31128;SDS011;17777;48.770;8.944;2024-02-21T06:25:32;3.50;;;1.38;;
31128;SDS011;17777;48.770;8.944;2024-02-21T06:27:57;2.55;;;1.35;;
31128;SDS011;17777;48.770;8.944;2024-02-21T06:30:23;5.35;;;1.50;;
31128;SDS011;17777;48.770;8.944;2024-02-21T06:32:49;3.75;;;1.48;;
31128;SDS011;17777;48.770;8.944;2024-02-21T06:35:15;4.30;;;1.48;;
31128;SDS011;17777;48.770;8.944;2024-02-21T06:37:42;5.07;;;1.50;;
31128;SDS011;17777;48.770;8.944;2024-02-21T06:40:07;5.20;;;1.48;;
31128;SDS011;17777;48.770;8.944;2024-02-21T06:42:33;5.25;;;2.00;;
31128;SDS011;17777;48.770;8.944;2024-02-21T06:44:59;4.20;;;1.90;;
31128;SDS011;17777;48.770;8.944;2024-02-21T06:47:25;3.53;;;1.63;;
31128;SDS011;17777;48.770;8.944;2024-02-21T06:49:51;3.33;;;1.50;;
31128;SDS011;17777;48.770;8.944;2024-02-21T06:52:17;8.30;;;1.70;;
31128;SDS011;17777;48.770;8.944;2024-02-21T06:54:45;3.83;;;1.20;;
31128;SDS011;17777;48.770;8.944;2024-02-21T06:57:12;4.10;;;1.55;;
31128;SDS011;17777;48.770;8.944;2024-02-21T06:59:39;2.30;;;1.13;;
31128;SDS011;17777;48.770;8.944;2024-02-21T07:02:05;3.10;;;1.27;;
31128;SDS011;17777;48.770;8.944;2024-02-21T07:04:31;5.00;;;1.42;;
31128;SDS011;17777;48.770;8.944;2024-02-21T07:06:57;6.07;;;1.40;;
31128;SDS011;17777;48.770;8.944;2024-02-21T07:09:23;4.07;;;1.52;;
31128;SDS011;17777;48.770;8.944;2024-02-21T07:11:49;6.60;;;1.30;;
31128;SDS011;17777;48.770;8.944;2024-02-21T07:14:15;5.35;;;1.30;;
31128;SDS011;17777;48.770;8.944;2024-02-21T07:16:41;5.63;;;1.90;;
31128;SDS011;17777;48.770;8.944;2024-02-21T07:19:07;4.45;;;1.50;;
31128;SDS011;17777;48.770;8.944;2024-02-21T07:21:32;4.43;;;1.50;;
31128;SDS011;17777;48.770;8.944;2024-02-21T07:23:58;3.50;;;1.67;;
31128;SDS011;17777;48.770;8.944;2024-02-21T07:26:24;5.10;;;1.70;;
31128;SDS011;17777;48.770;8.944;2024-02-21T07:28:50;6.22;;;1.65;;
31128;SDS011;17777;48.770;8.944;2024-02-21T07:31:16;4.47;;;1.52;;
31128;SDS011;17777;48.770;8.944;2024-02-21T07:33:42;4.60;;;1.80;;
31128;SDS011;17777;48.770;8.944;2024-02-21T07:36:10;5.10;;;1.70;;
31128;SDS011;17777;48.770;8.944;2024-02-21T07:38:36;3.95;;;1.40;;
31128;SDS011;17777;48.770;8.944;2024-02-21T07:41:02;4.45;;;1.98;;
31128;SDS011;17777;48.770;8.944;2024-02-21T07:43:29;5.38;;;1.92;;
31128;SDS011;17777;48.770;8.944;2024-02-21T07:45:55;4.40;;;1.70;;
31128;SDS011;17777;48.770;8.944;2024-02-21T07:48:21;5.03;;;1.80;;
31128;SDS011;17777;48.770;8.944;2024-02-21T07:50:51;3.47;;;1.98;;
31128;SDS011;17777;48.770;8.944;2024-02-21T07:53:17;3.20;;;1.30;;
31128;SDS011;17777;48.770;8.944;2024-02-21T07:55:45;8.23;;;1.90;;
31128;SDS011;17777;48.770;8.944;2024-02-21T07:58:10;6.93;;;2.05;;
31128;SDS011;17777;48.770;8.944;2024-02-21T08:00:36;5.05;;;2.03;;
31128;SDS011;17777;48.770;8.944;2024-02-21T08:03:02;7.25;;;1.70;;
31128;SDS011;17777;48.770;8.944;2024-02-21T08:05:28;4.75;;;1.58;;
31128;SDS011;17777;48.770;8.944;2024-02-21T08:07:55;4.40;;;1.90;;
31128;SDS011;17777;48.770;8.944;2024-02-21T08:10:21;4.45;;;1.58;;
31128;SDS011;17777;48.770;8.944;2024-02-21T08:12:46;5.18;;;1.77;;
31128;SDS011;17777;48.770;8.944;2024-02-21T08:15:12;3.35;;;1.77;;
31128;SDS011;17777;48.770;8.944;2024-02-21T08:17:38;5.13;;;1.50;;
31128;SDS011;17777;48.770;8.944;2024-02-21T08:20:04;7.45;;;1.73;;
31128;SDS011;17777;48.770;8.944;2024-02-21T08:22:30;5.07;;;1.40;;
31128;SDS011;17777;48.770;8.944;2024-02-21T08:24:56;6.25;;;1.05;;
31128;SDS011;17777;48.770;8.944;2024-02-21T08:27:22;6.60;;;1.75;;
31128;SDS011;17777;48.770;8.944;2024-02-21T08:29:48;4.88;;;1.33;;
31128;SDS011;17777;48.770;8.944;2024-02-21T08:32:14;5.43;;;1.58;;
31128;SDS011;17777;48.770;8.944;2024-02-21T08:34:39;4.60;;;1.55;;
31128;SDS011;17777;48.770;8.944;2024-02-21T08:37:05;4.22;;;1.88;;
31128;SDS011;17777;48.770;8.944;2024-02-21T08:39:31;3.67;;;1.73;;
31128;SDS011;17777;48.770;8.944;2024-02-21T08:41:57;3.55;;;1.38;;
31128;SDS011;17777;48.770;8.944;2024-02-21T08:44:23;4.97;;;1.40;;
31128;SDS011;17777;48.770;8.944;2024-02-21T08:46:52;3.92;;;1.20;;
31128;SDS011;17777;48.770;8.944;2024-02-21T08:49:17;4.75;;;1.60;;
31128;SDS011;17777;48.770;8.944;2024-02-21T08:51:43;2.83;;;1.48;;
31128;SDS011;17777;48.770;8.944;2024-02-21T08:54:09;3.90;;;1.55;;
31128;SDS011;17777;48.770;8.944;2024-02-21T08:56:35;4.47;;;1.67;;
31128;SDS011;17777;48.770;8.944;2024-02-21T08:59:01;4.30;;;1.50;;
31128;SDS011;17777;48.770;8.944;2024-02-21T09:01:27;4.57;;;1.70;;
31128;SDS011;17777;48.770;8.944;2024-02-21T09:03:53;6.00;;;1.65;;
31128;SDS011;17777;48.770;8.944;2024-02-21T09:06:21;5.20;;;1.40;;
31128;SDS011;17777;48.770;8.944;2024-02-21T09:08:48;7.40;;;1.60;;
31128;SDS011;17777;48.770;8.944;2024-02-21T09:11:14;3.58;;;1.45;;
31128;SDS011;17777;48.770;8.944;2024-02-21T09:13:41;4.00;;;1.38;;
31128;SDS011;17777;48.770;8.944;2024-02-21T09:16:06;3.50;;;1.65;;
31128;SDS011;17777;48.770;8.944;2024-02-21T09:18:34;3.97;;;1.40;;
31128;SDS011;17777;48.770;8.944;2024-02-21T09:20:59;6.10;;;1.58;;
31128;SDS011;17777;48.770;8.944;2024-02-21T09:23:26;7.45;;;1.90;;
31128;SDS011;17777;48.770;8.944;2024-02-21T09:25:52;3.72;;;1.30;;
31128;SDS011;17777;48.770;8.944;2024-02-21T09:28:18;3.95;;;1.40;;
31128;SDS011;17777;48.770;8.944;2024-02-21T09:30:44;3.65;;;1.40;;
31128;SDS011;17777;48.770;8.944;2024-02-21T09:33:10;3.47;;;1.33;;
31128;SDS011;17777;48.770;8.944;2024-02-21T09:35:36;3.58;;;1.42;;
31128;SDS011;17777;48.770;8.944;2024-02-21T09:38:02;8.18;;;1.45;;
31128;SDS011;17777;48.770;8.944;2024-02-21T09:40:28;4.72;;;1.27;;
31128;SDS011;17777;48.770;8.944;2024-02-21T09:43:12;4.57;;;1.15;;
31128;SDS011;17777;48.770;8.944;2024-02-21T09:45:43;6.50;;;1.70;;
31128;SDS011;17777;48.770;8.944;2024-02-21T09:51:05;10.43;;;2.08;;
31128;SDS011;17777;48.770;8.944;2024-02-21T09:53:32;4.25;;;1.42;;
31128;SDS011;17777;48.770;8.944;2024-02-21T09:56:02;4.43;;;1.40;;
31128;SDS011;17777;48.770;8.944;2024-02-21T09:58:32;6.20;;;1.80;;
31128;SDS011;17777;48.770;8.944;2024-02-21T10:00:59;3.20;;;1.33;;
31128;SDS011;17777;48.770;8.944;2024-02-21T10:03:26;7.43;;;1.67;;
31128;SDS011;17777;48.770;8.944;2024-02-21T10:05:51;3.38;;;1.15;;
31128;SDS011;17777;48.770;8.944;2024-02-21T10:08:18;3.67;;;1.20;;
31128;SDS011;17777;48.770;8.944;2024-02-21T10:10:45;3.55;;;1.20;;
31128;SDS011;17777;48.770;8.944;2024-02-21T10:13:24;3.22;;;1.50;;
31128;SDS011;17777;48.770;8.944;2024-02-21T10:16:05;2.70;;;1.35;;
31128;SDS011;17777;48.770;8.944;2024-02-21T10:18:33;4.10;;;1.10;;
31128;SDS011;17777;48.770;8.944;2024-02-21T10:26:12;2.97;;;1.20;;
31128;SDS011;17777;48.770;8.944;2024-02-21T10:28:39;3.53;;;1.27;;
31128;SDS011;17777;48.770;8.944;2024-02-21T10:31:31;4.75;;;1.52;;
31128;SDS011;17777;48.770;8.944;2024-02-21T10:33:59;4.60;;;1.25;;
31128;SDS011;17777;48.770;8.944;2024-02-21T10:36:30;2.92;;;1.10;;
31128;SDS011;17777;48.770;8.944;2024-02-21T10:38:56;2.28;;;1.48;;
31128;SDS011;17777;48.770;8.944;2024-02-21T10:41:22;3.90;;;1.30;;
31128;SDS011;17777;48.770;8.944;2024-02-21T10:43:55;4.13;;;1.20;;
31128;SDS011;17777;48.770;8.944;2024-02-21T10:46:22;3.95;;;1.15;;
31128;SDS011;17777;48.770;8.944;2024-02-21T10:49:03;2.83;;;1.05;;
31128;SDS011;17777;48.770;8.944;2024-02-21T10:51:43;3.60;;;1.27;;
31128;SDS011;17777;48.770;8.944;2024-02-21T10:56:53;3.30;;;1.17;;
31128;SDS011;17777;48.770;8.944;2024-02-21T10:59:23;1.98;;;1.02;;
31128;SDS011;17777;48.770;8.944;2024-02-21T11:01:51;2.00;;;1.15;;
31128;SDS011;17777;48.770;8.944;2024-02-21T11:04:17;4.13;;;0.98;;
31128;SDS011;17777;48.770;8.944;2024-02-21T11:06:43;3.35;;;1.08;;
31128;SDS011;17777;48.770;8.944;2024-02-21T11:09:10;3.00;;;0.98;;
31128;SDS011;17777;48.770;8.944;2024-02-21T11:11:40;3.25;;;1.10;;
31128;SDS011;17777;48.770;8.944;2024-02-21T11:14:17;3.85;;;0.93;;
31128;SDS011;17777;48.770;8.944;2024-02-21T11:16:46;5.15;;;0.90;;
31128;SDS011;17777;48.770;8.944;2024-02-21T11:21:44;2.10;;;0.73;;
31128;SDS011;17777;48.770;8.944;2024-02-21T11:24:10;5.07;;;1.10;;
31128;SDS011;17777;48.770;8.944;2024-02-21T11:26:39;4.15;;;1.73;;
31128;SDS011;17777;48.770;8.944;2024-02-21T11:29:08;2.92;;;1.00;;
31128;SDS011;17777;48.770;8.944;2024-02-21T11:31:44;4.95;;;1.05;;
31128;SDS011;17777;48.770;8.944;2024-02-21T11:34:11;2.08;;;1.20;;
31128;SDS011;17777;48.770;8.944;2024-02-21T11:36:47;3.80;;;1.30;;
31128;SDS011;17777;48.770;8.944;2024-02-21T11:39:33;3.33;;;1.45;;
31128;SDS011;17777;48.770;8.944;2024-02-21T11:42:06;4.38;;;1.30;;
31128;SDS011;17777;48.770;8.944;2024-02-21T11:44:37;1.70;;;0.80;;
31128;SDS011;17777;48.770;8.944;2024-02-21T11:47:03;3.72;;;1.08;;
31128;SDS011;17777;48.770;8.944;2024-02-21T11:49:30;2.13;;;0.77;;
31128;SDS011;17777;48.770;8.944;2024-02-21T11:51:59;2.42;;;0.73;;
31128;SDS011;17777;48.770;8.944;2024-02-21T11:54:29;3.33;;;1.35;;
31128;SDS011;17777;48.770;8.944;2024-02-21T11:56:59;2.28;;;0.88;;
31128;SDS011;17777;48.770;8.944;2024-02-21T11:59:26;2.72;;;0.80;;
31128;SDS011;17777;48.770;8.944;2024-02-21T12:01:55;2.35;;;0.90;;
31128;SDS011;17777;48.770;8.944;2024-02-21T12:04:23;1.83;;;0.90;;
31128;SDS011;17777;48.770;8.944;2024-02-21T12:06:50;3.83;;;1.10;;
31128;SDS011;17777;48.770;8.944;2024-02-21T12:09:19;2.53;;;0.98;;
31128;SDS011;17777;48.770;8.944;2024-02-21T12:11:45;1.92;;;0.90;;
31128;SDS011;17777;48.770;8.944;2024-02-21T12:14:15;1.88;;;0.70;;
31128;SDS011;17777;48.770;8.944;2024-02-21T12:16:42;1.35;;;0.50;;
31128;SDS011;17777;48.770;8.944;2024-02-21T12:19:15;1.77;;;0.75;;
31128;SDS011;17777;48.770;8.944;2024-02-21T12:21:42;1.60;;;0.65;;
31128;SDS011;17777;48.770;8.944;2024-02-21T12:24:23;2.95;;;0.98;;
31128;SDS011;17777;48.770;8.944;2024-02-21T12:26:53;3.13;;;0.77;;
31128;SDS011;17777;48.770;8.944;2024-02-21T12:29:21;2.42;;;1.00;;
31128;SDS011;17777;48.770;8.944;2024-02-21T12:31:50;2.30;;;0.93;;
31128;SDS011;17777;48.770;8.944;2024-02-21T12:34:16;1.80;;;0.68;;
31128;SDS011;17777;48.770;8.944;2024-02-21T12:36:43;1.38;;;0.63;;
31128;SDS011;17777;48.770;8.944;2024-02-21T12:39:10;2.90;;;0.65;;
31128;SDS011;17777;48.770;8.944;2024-02-21T12:41:36;1.85;;;0.60;;
31128;SDS011;17777;48.770;8.944;2024-02-21T12:44:08;2.00;;;0.80;;
31128;SDS011;17777;48.770;8.944;2024-02-21T12:46:36;2.00;;;0.90;;
31128;SDS011;17777;48.770;8.944;2024-02-21T12:49:03;2.60;;;0.70;;
31128;SDS011;17777;48.770;8.944;2024-02-21T12:51:30;1.33;;;0.55;;
31128;SDS011;17777;48.770;8.944;2024-02-21T12:53:57;3.85;;;0.80;;
31128;SDS011;17777;48.770;8.944;2024-02-21T12:56:24;1.45;;;0.82;;
31128;SDS011;17777;48.770;8.944;2024-02-21T12:58:53;24.77;;;1.55;;
31128;SDS011;17777;48.770;8.944;2024-02-21T13:01:19;2.35;;;0.90;;
31128;SDS011;17777;48.770;8.944;2024-02-21T13:03:46;3.00;;;0.85;;
31128;SDS011;17777;48.770;8.944;2024-02-21T13:06:12;4.68;;;0.80;;
31128;SDS011;17777;48.770;8.944;2024-02-21T13:08:38;2.35;;;0.80;;
31128;SDS011;17777;48.770;8.944;2024-02-21T13:11:05;1.75;;;0.65;;
31128;SDS011;17777;48.770;8.944;2024-02-21T13:13:31;1.42;;;0.73;;
31128;SDS011;17777;48.770;8.944;2024-02-21T13:15:57;1.00;;;0.55;;
31128;SDS011;17777;48.770;8.944;2024-02-21T13:18:24;1.25;;;0.57;;
31128;SDS011;17777;48.770;8.944;2024-02-21T13:20:50;0.47;;;0.38;;
31128;SDS011;17777;48.770;8.944;2024-02-21T13:23:16;1.52;;;0.60;;
31128;SDS011;17777;48.770;8.944;2024-02-21T13:25:42;0.85;;;0.50;;
31128;SDS011;17777;48.770;8.944;2024-02-21T13:28:10;1.38;;;0.50;;
31128;SDS011;17777;48.770;8.944;2024-02-21T13:30:36;1.20;;;0.40;;
31128;SDS011;17777;48.770;8.944;2024-02-21T13:33:02;1.83;;;0.52;;
31128;SDS011;17777;48.770;8.944;2024-02-21T13:35:28;1.48;;;0.60;;
31128;SDS011;17777;48.770;8.944;2024-02-21T13:37:54;1.30;;;0.60;;
31128;SDS011;17777;48.770;8.944;2024-02-21T13:40:20;0.65;;;0.40;;
31128;SDS011;17777;48.770;8.944;2024-02-21T13:42:46;0.50;;;0.40;;
31128;SDS011;17777;48.770;8.944;2024-02-21T13:45:12;1.75;;;0.43;;
31128;SDS011;17777;48.770;8.944;2024-02-21T13:47:39;0.63;;;0.32;;
31128;SDS011;17777;48.770;8.944;2024-02-21T13:50:05;0.88;;;0.50;;
31128;SDS011;17777;48.770;8.944;2024-02-21T13:52:35;1.08;;;0.30;;
31128;SDS011;17777;48.770;8.944;2024-02-21T13:55:02;0.55;;;0.30;;
31128;SDS011;17777;48.770;8.944;2024-02-21T13:57:28;0.50;;;0.30;;
31128;SDS011;17777;48.770;8.944;2024-02-21T13:59:54;0.35;;;0.30;;
31128;SDS011;17777;48.770;8.944;2024-02-21T14:02:21;2.60;;;0.43;;
31128;SDS011;17777;48.770;8.944;2024-02-21T14:04:47;1.15;;;0.40;;
31128;SDS011;17777;48.770;8.944;2024-02-21T14:07:12;0.55;;;0.30;;
31128;SDS011;17777;48.770;8.944;2024-02-21T14:09:38;0.65;;;0.43;;
31128;SDS011;17777;48.770;8.944;2024-02-21T14:12:04;1.27;;;0.40;;
31128;SDS011;17777;48.770;8.944;2024-02-21T14:14:34;0.80;;;0.40;;
31128;SDS011;17777;48.770;8.944;2024-02-21T14:17:01;0.38;;;0.30;;
31128;SDS011;17777;48.770;8.944;2024-02-21T14:19:28;1.10;;;0.65;;
31128;SDS011;17777;48.770;8.944;2024-02-21T14:21:55;0.85;;;0.40;;
31128;SDS011;17777;48.770;8.944;2024-02-21T14:24:22;0.60;;;0.40;;
31128;SDS011;17777;48.770;8.944;2024-02-21T14:26:48;0.30;;;0.30;;
31128;SDS011;17777;48.770;8.944;2024-02-21T14:29:14;0.95;;;0.50;;
31128;SDS011;17777;48.770;8.944;2024-02-21T14:31:40;0.40;;;0.40;;
31128;SDS011;17777;48.770;8.944;2024-02-21T14:34:06;0.40;;;0.30;;
31128;SDS011;17777;48.770;8.944;2024-02-21T14:36:33;1.23;;;0.45;;
31128;SDS011;17777;48.770;8.944;2024-02-21T14:38:59;0.90;;;0.40;;
31128;SDS011;17777;48.770;8.944;2024-02-21T14:41:25;0.40;;;0.22;;
31128;SDS011;17777;48.770;8.944;2024-02-21T14:43:52;1.02;;;0.40;;
31128;SDS011;17777;48.770;8.944;2024-02-21T14:46:18;0.85;;;0.30;;
31128;SDS011;17777;48.770;8.944;2024-02-21T14:48:44;0.65;;;0.30;;
31128;SDS011;17777;48.770;8.944;2024-02-21T14:51:10;0.30;;;0.30;;
31128;SDS011;17777;48.770;8.944;2024-02-21T14:53:36;0.40;;;0.32;;
31128;SDS011;17777;48.770;8.944;2024-02-21T14:56:02;0.60;;;0.40;;
31128;SDS011;17777;48.770;8.944;2024-02-21T14:58:28;0.85;;;0.50;;
31128;SDS011;17777;48.770;8.944;2024-02-21T15:00:56;0.22;;;0.20;;
31128;SDS011;17777;48.770;8.944;2024-02-21T15:03:22;0.82;;;0.40;;
31128;SDS011;17777;48.770;8.944;2024-02-21T15:05:47;0.30;;;0.30;;